LRTR/TSR METAR and TAF weather

Enter ICAO airport designator
Station Type Date Time Source
LRTR METAR 2020/07/04 09:30 UTC NOAA

LRTR 040930Z 30004KT 240V030 9999 BKN021 23/19 Q1016


Station Type Date Time Source
LRTR Decoded METAR 2020/07/04 09:30 UTC NOAA

Timisoara, Romania (LRTR) 45-46N 021-15E 88M
Jul 04, 2020 - 05:30 AM EDT / 2020.07.04 0930 UTC
Wind: from the WNW (300 degrees) at 5 MPH (4 KT) (direction variable):0
Visibility: greater than 7 mile(s):0
Sky conditions: mostly cloudy
Temperature: 73 F (23 C)
Dew Point: 66 F (19 C)
Relative Humidity: 78%
Pressure (altimeter): 30.00 in. Hg (1016 hPa)
ob: LRTR 040930Z 30004KT 240V030 9999 BKN021 23/19 Q1016
cycle: 9

Station Type Date Time Source
LRTR TAF 2020/07/04 06:33 UTC NOAA

TAF LRTR 040500Z 0406/0506 35006KT 9999 BKN010
BECMG 0406/0408 BKN030 PROB40
TEMPO 0410/0414 5000 -TSRA SCT040CB
TEMPO 0501/0504 3000 BR

Example: see airport list